Time;durP1;ratioP1;P1;durP2;ratioP2;P2;SDS_P1;SDS_P2;PMS_P1;PMS_P2;Temp;Humidity;BMP_temperature;BMP_pressure;BME280_temperature;BME280_humidity;BME280_pressure;Samples;Min_cycle;Max_cycle;Signal;HPM_P1;HPM_P2
2021/09/27 00:00:43;;;;;;;41.60;25.70;;;;;;;14.82;90.62;95047.69;1728328;81;20966;-56
2021/09/27 00:03:10;;;;;;;38.48;24.40;;;;;;;14.87;90.28;95036.00;1722780;81;21080;-56
2021/09/27 00:05:36;;;;;;;33.95;21.25;;;;;;;14.86;90.02;95040.00;1741090;81;20945;-56
2021/09/27 00:08:04;;;;;;;30.02;18.12;;;;;;;14.89;89.79;95040.45;1707418;83;21300;-56
2021/09/27 00:10:42;;;;;;;37.05;20.23;;;;;;;14.89;89.59;95036.30;1708265;82;20993;-55
2021/09/27 00:13:09;;;;;;;36.58;20.60;;;;;;;14.89;89.42;95039.06;1722471;81;21160;-55
2021/09/27 00:15:42;;;;;;;28.73;18.80;;;;;;;14.88;89.22;95038.13;1720653;82;21533;-56
2021/09/27 00:18:09;;;;;;;30.52;20.62;;;;;;;14.83;89.08;95031.22;1712401;81;21061;-56
2021/09/27 00:20:42;;;;;;;41.50;22.25;;;;;;;14.82;89.09;95038.63;1723636;81;21120;-56
2021/09/27 00:23:09;;;;;;;38.00;22.98;;;;;;;14.77;89.01;95040.63;1722883;82;21006;-56
2021/09/27 00:25:36;;;;;;;37.23;23.73;;;;;;;14.69;89.43;95034.67;1717051;82;21092;-56
2021/09/27 00:28:04;;;;;;;39.00;23.55;;;;;;;14.65;89.72;95042.36;1680406;84;20983;-56
2021/09/27 00:30:31;;;;;;;36.88;21.50;;;;;;;14.60;89.75;95038.09;1666009;84;20962;-56
2021/09/27 00:32:58;;;;;;;41.20;22.60;;;;;;;14.56;89.83;95034.09;1665302;84;21138;-56
2021/09/27 00:35:29;;;;;;;41.98;22.35;;;;;;;14.52;89.96;95035.47;1664112;84;21108;-56
2021/09/27 00:37:56;;;;;;;32.20;24.02;;;;;;;14.50;90.09;95034.57;1721105;82;21045;-57
2021/09/27 00:40:27;;;;;;;38.35;23.77;;;;;;;14.46;90.29;95030.42;1710603;82;20998;-57
2021/09/27 00:42:54;;;;;;;38.83;20.92;;;;;;;14.41;90.54;95030.27;1727753;81;21722;-57
2021/09/27 00:45:25;;;;;;;40.92;23.00;;;;;;;14.37;90.80;95028.29;1732209;81;21943;-57
2021/09/27 00:47:52;;;;;;;34.40;22.87;;;;;;;14.35;91.04;95030.13;1712479;82;21679;-56
2021/09/27 00:50:22;;;;;;;35.40;21.90;;;;;;;14.33;91.32;95024.92;1713396;82;21162;-57
2021/09/27 00:52:49;;;;;;;43.08;23.92;;;;;;;14.34;91.61;95020.92;1717100;82;21037;-56
2021/09/27 00:55:19;;;;;;;42.33;21.52;;;;;;;14.34;91.54;95018.91;1723985;81;21176;-56
2021/09/27 00:57:46;;;;;;;37.42;20.48;;;;;;;14.36;91.62;95014.30;1731479;81;21130;-56
2021/09/27 01:00:17;;;;;;;35.58;22.50;;;;;;;14.38;91.74;95015.35;1704492;81;20967;-56
2021/09/27 01:02:44;;;;;;;44.25;23.87;;;;;;;14.42;91.67;95012.44;1737108;81;21430;-56
2021/09/27 01:05:12;;;;;;;58.58;26.52;;;;;;;14.41;91.58;95013.66;1714752;81;20954;-56
2021/09/27 01:08:06;;;;;;;39.75;22.93;;;;;;;14.36;91.41;95010.14;1718964;81;20990;-57
2021/09/27 01:10:58;;;;;;;46.48;24.55;;;;;;;14.31;91.60;95013.52;1721831;82;21158;-57
2021/09/27 01:13:49;;;;;;;38.70;23.67;;;;;;;14.29;91.67;95011.84;1717183;82;21474;-56
2021/09/27 01:16:30;;;;;;;45.10;23.40;;;;;;;14.28;91.84;95008.92;1745661;81;21195;-56
2021/09/27 01:19:10;;;;;;;51.73;24.20;;;;;;;14.25;91.87;95005.70;1719116;82;21081;-56
2021/09/27 01:22:06;;;;;;;36.93;22.10;;;;;;;14.22;92.00;94999.08;1726824;81;20994;-56
2021/09/27 01:25:16;;;;;;;41.18;23.10;;;;;;;14.23;92.17;95002.63;1715006;81;21137;-56
2021/09/27 01:27:54;;;;;;;38.95;22.05;;;;;;;14.25;92.12;95010.63;1731896;81;20978;-57
2021/09/27 01:30:54;;;;;;;30.88;20.85;;;;;;;14.26;92.17;95007.23;1684078;84;20971;-55
2021/09/27 01:33:32;;;;;;;37.15;19.77;;;;;;;14.27;92.16;95010.15;1670237;84;21464;-58
2021/09/27 01:36:23;;;;;;;42.93;19.23;;;;;;;14.26;92.11;95008.02;1679520;83;21120;-57
2021/09/27 01:39:04;;;;;;;39.00;21.23;;;;;;;14.31;92.33;95010.15;1636168;83;21478;-55
2021/09/27 01:41:39;;;;;;;33.53;20.75;;;;;;;14.35;92.16;95013.52;1727471;81;20977;-55
2021/09/27 01:44:36;;;;;;;31.48;20.37;;;;;;;14.36;91.96;95003.98;1725130;81;21568;-55
2021/09/27 01:47:14;;;;;;;35.60;20.48;;;;;;;14.37;91.73;95004.76;1720928;81;21057;-57
2021/09/27 01:50:02;;;;;;;34.78;22.13;;;;;;;14.34;91.65;95002.30;1693855;80;21035;-56
2021/09/27 01:52:34;;;;;;;41.35;22.42;;;;;;;14.30;91.69;94999.53;1722466;81;21880;-56
2021/09/27 01:55:15;;;;;;;32.00;20.60;;;;;;;14.30;91.98;94991.23;1708067;81;49130;-55
2021/09/27 01:58:08;;;;;;;33.20;19.52;;;;;;;14.30;91.77;94991.23;1731202;81;21414;-55
2021/09/27 02:00:42;;;;;;;36.90;20.43;;;;;;;14.27;91.61;94986.02;1738783;81;20965;-56
2021/09/27 02:03:17;;;;;;;37.28;21.30;;;;;;;14.26;91.74;94985.09;1730250;82;20996;-56
2021/09/27 02:06:23;;;;;;;34.78;19.95;;;;;;;14.25;91.70;94981.58;1724950;81;21737;-57
2021/09/27 02:09:07;;;;;;;30.55;19.15;;;;;;;14.24;91.77;94986.17;1716918;82;21521;-56
2021/09/27 02:11:40;;;;;;;30.48;17.50;;;;;;;14.18;91.75;94989.42;1725423;82;20989;-56
2021/09/27 02:14:31;;;;;;;27.60;17.75;;;;;;;14.15;91.90;94987.56;1669702;84;21026;-56
2021/09/27 02:17:19;;;;;;;28.15;19.52;;;;;;;14.13;92.08;94987.23;1708692;82;21046;-57
2021/09/27 02:19:57;;;;;;;29.40;18.67;;;;;;;14.11;92.05;94982.78;1709828;82;21147;-57
2021/09/27 02:22:27;;;;;;;35.70;19.75;;;;;;;14.08;92.08;94985.09;1717956;82;21524;-57
2021/09/27 02:25:15;;;;;;;26.90;17.80;;;;;;;14.07;92.15;94984.95;1728826;81;21058;-56
2021/09/27 02:27:42;;;;;;;26.80;16.93;;;;;;;14.06;92.22;94979.26;1724439;81;21057;-56
2021/09/27 02:30:12;;;;;;;28.38;17.80;;;;;;;14.05;92.19;94982.66;1708271;82;21445;-56
2021/09/27 02:32:44;;;;;;;25.60;17.00;;;;;;;14.08;92.27;94979.56;1715486;82;21216;-57
2021/09/27 02:35:18;;;;;;;26.33;17.55;;;;;;;14.08;92.28;94974.81;1713683;82;20998;-57
2021/09/27 02:38:05;;;;;;;23.07;17.82;;;;;;;14.14;92.33;94973.58;1722240;81;20969;-57
2021/09/27 02:40:46;;;;;;;28.85;18.23;;;;;;;14.14;91.93;94964.64;1697341;82;21563;-56
2021/09/27 02:43:13;;;;;;;31.62;18.05;;;;;;;14.16;91.73;94966.99;1719072;81;21413;-56
2021/09/27 02:45:42;;;;;;;31.62;19.73;;;;;;;14.14;91.64;94965.28;1717417;81;21170;-56
2021/09/27 02:48:21;;;;;;;31.10;19.30;;;;;;;14.15;91.83;94965.42;1711517;81;21061;-56
2021/09/27 02:50:51;;;;;;;34.75;19.15;;;;;;;14.14;91.49;94965.28;1725058;82;21087;-57
2021/09/27 02:53:19;;;;;;;35.20;20.43;;;;;;;14.06;91.18;94965.42;1696923;82;21065;-56
2021/09/27 02:56:41;;;;;;;29.98;18.73;;;;;;;13.99;91.41;94971.29;1726861;81;21096;-56
2021/09/27 02:59:36;;;;;;;35.10;19.05;;;;;;;13.96;91.59;94971.59;1738346;81;21820;-56
2021/09/27 03:02:18;;;;;;;35.92;18.15;;;;;;;13.86;91.55;94974.23;1720988;81;21072;-56
2021/09/27 03:05:09;;;;;;;31.20;17.95;;;;;;;13.84;91.66;94975.28;1722538;81;21006;-56
2021/09/27 03:07:47;;;;;;;37.80;19.70;;;;;;;13.82;91.65;94971.46;1691269;82;21069;-57
2021/09/27 03:10:49;;;;;;;37.93;19.30;;;;;;;13.79;91.78;94966.86;1717879;82;21042;-56
2021/09/27 03:13:38;;;;;;;34.13;19.12;;;;;;;13.75;91.82;94968.39;1731835;81;21804;-55
2021/09/27 03:16:30;;;;;;;28.27;16.57;;;;;;;13.75;92.16;94966.22;1714518;82;21037;-57
2021/09/27 03:19:40;;;;;;;30.05;17.55;;;;;;;13.78;92.07;94965.33;1727697;81;21073;-57
2021/09/27 03:22:24;;;;;;;29.85;18.57;;;;;;;13.82;92.10;94961.78;1721529;82;21572;-58
2021/09/27 03:25:35;;;;;;;28.02;15.45;;;;;;;13.81;91.82;94963.02;1722489;82;20950;-58
2021/09/27 03:28:19;;;;;;;27.07;14.90;;;;;;;13.83;91.94;94960.55;1703423;82;21099;-56
2021/09/27 03:31:09;;;;;;;23.40;15.25;;;;;;;13.85;91.50;94958.09;1726604;81;21044;-56
2021/09/27 03:33:51;;;;;;;24.75;17.17;;;;;;;13.83;91.30;94959.16;1723585;82;21535;-56
2021/09/27 03:36:35;;;;;;;25.75;16.73;;;;;;;13.81;91.39;94960.25;1729073;81;21596;-56
2021/09/27 03:39:22;;;;;;;23.05;15.98;;;;;;;13.81;91.55;94966.53;1721394;81;21050;-55
2021/09/27 03:41:51;;;;;;;23.75;15.08;;;;;;;13.82;91.33;94961.15;1726077;82;21779;-57
2021/09/27 03:44:36;;;;;;;21.60;14.65;;;;;;;13.80;91.12;94957.33;1731377;81;21014;-56
2021/09/27 03:47:13;;;;;;;17.48;12.55;;;;;;;13.74;91.24;94955.02;1740334;81;21014;-56
2021/09/27 03:50:08;;;;;;;16.62;11.22;;;;;;;13.73;91.50;94950.71;1709931;82;21014;-57
2021/09/27 03:53:11;;;;;;;16.93;10.72;;;;;;;13.73;91.50;94948.73;1707682;82;20982;-57
2021/09/27 03:55:51;;;;;;;21.15;12.75;;;;;;;13.75;91.52;94948.25;1658330;83;21152;-55
2021/09/27 03:58:37;;;;;;;23.57;16.30;;;;;;;13.73;91.50;94952.88;1717953;81;21557;-56
2021/09/27 04:01:21;;;;;;;28.50;17.35;;;;;;;13.68;91.50;94952.72;1721065;81;21487;-56
2021/09/27 04:04:14;;;;;;;32.95;17.20;;;;;;;13.62;91.73;94960.11;1720483;81;21029;-57
2021/09/27 04:07:10;;;;;;;30.20;16.73;;;;;;;13.62;91.71;94959.48;1731919;82;21528;-56
2021/09/27 04:09:51;;;;;;;30.00;17.30;;;;;;;13.58;91.81;94958.87;1716591;82;21098;-57
2021/09/27 04:12:29;;;;;;;32.60;16.50;;;;;;;13.55;92.04;94954.86;1715763;81;21069;-56
2021/09/27 04:15:22;;;;;;;28.85;13.90;;;;;;;13.52;91.98;94953.81;1718978;82;20962;-56
2021/09/27 04:18:21;;;;;;;25.30;14.45;;;;;;;13.49;92.22;94946.41;1723248;81;20969;-57
2021/09/27 04:21:06;;;;;;;22.45;14.25;;;;;;;13.52;92.42;94944.73;1717840;81;21152;-55
2021/09/27 04:24:12;;;;;;;26.05;14.35;;;;;;;13.52;92.52;94947.50;1725028;81;21146;-56
2021/09/27 04:27:24;;;;;;;18.65;12.10;;;;;;;13.49;92.73;94940.89;1725637;81;21041;-56
2021/09/27 04:30:15;;;;;;;29.73;14.13;;;;;;;13.49;92.94;94938.75;1733287;81;21505;-56
2021/09/27 04:33:00;;;;;;;22.82;12.20;;;;;;;13.51;93.22;94939.84;1714544;82;21113;-55
2021/09/27 04:35:50;;;;;;;16.25;12.33;;;;;;;13.52;93.38;94946.90;1714215;81;21176;-56
2021/09/27 04:38:17;;;;;;;21.90;12.15;;;;;;;13.55;93.38;94939.66;1726389;82;21133;-57
2021/09/27 04:41:10;;;;;;;26.95;12.85;;;;;;;13.58;93.37;94939.52;1726748;81;20961;-57
2021/09/27 04:44:08;;;;;;;23.65;12.13;;;;;;;13.62;93.35;94942.89;1724887;82;21060;-56
2021/09/27 04:46:55;;;;;;;22.98;13.43;;;;;;;13.65;93.25;94951.63;1645260;86;21478;-57
2021/09/27 04:49:41;;;;;;;28.30;14.13;;;;;;;13.67;93.24;94953.95;1670083;84;20955;-56
2021/09/27 04:52:28;;;;;;;32.70;14.30;;;;;;;13.67;93.27;94967.14;1667509;84;21145;-57
2021/09/27 04:55:02;;;;;;;25.08;13.58;;;;;;;13.73;93.44;94959.79;1672883;84;20979;-57
2021/09/27 04:57:42;;;;;;;26.15;13.38;;;;;;;13.82;93.50;94957.63;1662108;83;21125;-58
2021/09/27 05:00:17;;;;;;;25.10;15.50;;;;;;;13.89;93.51;94955.92;1651950;84;20991;-56
2021/09/27 05:02:55;;;;;;;27.50;14.90;;;;;;;13.97;93.21;94958.54;1665942;84;21093;-56
2021/09/27 05:05:33;;;;;;;32.53;15.45;;;;;;;13.99;93.13;94955.45;1682787;84;21152;-57
2021/09/27 05:08:39;;;;;;;34.13;17.30;;;;;;;14.06;93.15;94958.52;1665211;84;21541;-58
2021/09/27 05:11:29;;;;;;;31.65;18.17;;;;;;;14.11;92.91;94951.74;1673263;84;21100;-56
2021/09/27 05:14:28;;;;;;;32.93;17.77;;;;;;;14.17;92.88;94958.20;1713948;82;21512;-58
2021/09/27 05:17:29;;;;;;;29.00;19.05;;;;;;;14.24;92.62;94951.58;1717685;81;20949;-57
2021/09/27 05:20:07;;;;;;;26.17;16.55;;;;;;;14.26;92.39;94956.03;1729860;81;21830;-57
2021/09/27 05:22:57;;;;;;;26.12;17.48;;;;;;;14.26;92.26;94961.57;1720894;81;21001;-58
2021/09/27 05:25:36;;;;;;;48.33;22.62;;;;;;;14.27;92.46;94962.50;1713513;82;20985;-60
2021/09/27 05:28:11;;;;;;;36.70;22.42;;;;;;;14.32;92.39;94966.02;1708933;82;21104;-57
2021/09/27 05:30:55;;;;;;;38.28;20.70;;;;;;;14.36;92.17;94967.25;1697233;81;21522;-57
2021/09/27 05:33:51;;;;;;;27.60;18.15;;;;;;;14.35;91.97;94974.77;1713518;81;22037;-57
2021/09/27 05:36:30;;;;;;;36.38;19.67;;;;;;;14.38;92.01;94980.00;1719582;81;21320;-58
2021/09/27 05:39:14;;;;;;;36.35;17.37;;;;;;;14.40;92.04;94974.77;1727572;81;21070;-56
2021/09/27 05:42:20;;;;;;;29.30;15.08;;;;;;;14.40;91.62;94973.38;1720130;81;21138;-58
2021/09/27 05:45:06;;;;;;;31.45;16.97;;;;;;;14.38;91.46;94984.15;1706465;82;21475;-58
2021/09/27 05:47:58;;;;;;;35.45;18.20;;;;;;;14.34;91.57;94978.02;1687301;83;21120;-58
2021/09/27 05:50:54;;;;;;;25.60;16.70;;;;;;;14.33;91.75;94977.23;1692514;81;21134;-58
2021/09/27 05:53:47;;;;;;;25.35;18.50;;;;;;;14.38;91.83;94985.53;1729340;81;21087;-58
2021/09/27 05:56:43;;;;;;;20.35;15.32;;;;;;;14.36;91.64;94983.22;1720971;81;21143;-58
2021/09/27 05:59:23;;;;;;;25.60;15.75;;;;;;;14.38;91.62;94984.15;1715709;81;21132;-59
2021/09/27 06:02:05;;;;;;;26.02;15.60;;;;;;;14.38;91.71;94989.69;1717949;81;21050;-60
2021/09/27 06:05:08;;;;;;;21.52;15.90;;;;;;;14.43;91.89;94989.05;1719553;81;21499;-60
2021/09/27 06:07:38;;;;;;;;;;;;;;;14.46;91.78;94991.66;1714994;81;21087;-58
2021/09/27 06:10:17;;;;;;;26.25;17.45;;;;;;;14.50;91.71;94979.80;1707248;82;20470;-61
2021/09/27 06:13:24;;;;;;;20.08;15.83;;;;;;;14.56;91.32;94991.17;1696667;81;21002;-59
2021/09/27 06:15:55;;;;;;;29.72;17.23;;;;;;;14.65;90.93;94988.35;1707675;82;21908;-59
2021/09/27 06:18:45;;;;;;;25.50;15.63;;;;;;;14.68;90.14;94985.28;1707230;81;21089;-58
2021/09/27 06:21:48;;;;;;;26.15;14.80;;;;;;;14.71;89.93;94982.34;1709204;82;22201;-58
2021/09/27 06:24:41;;;;;;;23.77;14.55;;;;;;;14.81;89.41;94982.45;1721335;81;21141;-59
2021/09/27 06:27:28;;;;;;;25.12;14.60;;;;;;;14.86;88.56;94983.81;1714601;81;21135;-60
2021/09/27 06:30:16;;;;;;;27.48;15.68;;;;;;;14.92;88.11;94982.72;1713637;81;21878;-61
2021/09/27 06:33:09;;;;;;;24.90;14.23;;;;;;;14.98;87.32;94982.21;1713511;81;21390;-56
2021/09/27 06:35:38;;;;;;;20.95;15.05;;;;;;;14.98;86.75;94986.37;1710672;81;21189;-62
2021/09/27 06:38:07;;;;;;;23.40;15.45;;;;;;;15.01;86.48;94986.81;1713955;81;21056;-59
2021/09/27 06:40:46;;;;;;;25.92;17.07;;;;;;;15.08;86.07;94992.63;1686571;81;21659;-64
2021/09/27 06:43:21;;;;;;;26.10;17.15;;;;;;;15.10;85.79;94985.39;1697202;81;21187;-59
2021/09/27 06:45:48;;;;;;;29.82;15.43;;;;;;;15.09;85.84;94982.47;1687413;82;21066;-57
2021/09/27 06:48:15;;;;;;;25.88;14.18;;;;;;;15.13;85.55;94987.22;1717999;81;22246;-55
2021/09/27 06:50:42;;;;;;;33.75;13.58;;;;;;;15.20;85.26;94986.11;1704282;81;21034;-60
2021/09/27 06:53:08;;;;;;;24.52;14.60;;;;;;;15.27;84.77;94986.53;1703147;82;21121;-59
2021/09/27 06:55:35;;;;;;;25.92;16.40;;;;;;;15.34;84.93;94979.91;1704038;81;21136;-65
2021/09/27 06:58:02;;;;;;;23.00;14.98;;;;;;;15.46;84.77;94982.43;1699879;83;21453;-62
2021/09/27 07:00:31;;;;;;;24.47;15.70;;;;;;;15.62;84.47;94977.84;1713241;81;21574;-67
2021/09/27 07:02:59;;;;;;;35.30;15.68;;;;;;;15.79;83.77;94986.49;1723973;82;21029;-61
2021/09/27 07:05:26;;;;;;;27.45;14.55;;;;;;;15.94;82.97;94983.89;1712858;81;21710;-62
2021/09/27 07:07:52;;;;;;;21.68;14.73;;;;;;;16.04;82.35;94987.34;1708209;81;21132;-59
2021/09/27 07:10:22;;;;;;;26.33;14.25;;;;;;;16.09;81.81;94984.69;1708765;81;21114;-60
2021/09/27 07:12:48;;;;;;;36.95;14.85;;;;;;;16.13;81.41;94985.89;1707455;81;21048;-58
2021/09/27 07:15:15;;;;;;;24.45;14.60;;;;;;;16.16;81.09;94980.16;1721920;81;20973;-60
2021/09/27 07:17:42;;;;;;;59.10;23.02;;;;;;;16.22;80.99;94980.23;1738496;81;21073;-58
2021/09/27 07:20:13;;;;;;;31.93;14.23;;;;;;;16.23;80.69;94983.94;1716252;81;21252;-59
2021/09/27 07:22:42;;;;;;;28.75;16.27;;;;;;;16.29;80.68;94977.85;1687628;82;21060;-56
2021/09/27 07:25:11;;;;;;;25.50;13.78;;;;;;;16.40;80.50;94982.25;1694091;81;21447;-59
2021/09/27 07:27:37;;;;;;;29.82;14.93;;;;;;;16.53;80.13;94982.74;1706925;81;21041;-59
2021/09/27 07:30:05;;;;;;;23.25;12.65;;;;;;;16.63;79.46;94977.21;1707102;80;21081;-58
2021/09/27 07:32:33;;;;;;;32.58;12.82;;;;;;;16.71;79.02;94970.03;1703795;81;21195;-59
2021/09/27 07:34:59;;;;;;;25.82;13.48;;;;;;;16.79;78.78;94983.67;1729480;81;21048;-60
2021/09/27 07:37:27;;;;;;;41.25;18.65;;;;;;;16.86;78.51;94977.70;1727333;81;21076;-61
2021/09/27 07:39:54;;;;;;;28.62;15.08;;;;;;;16.98;78.42;94979.42;1714767;81;21016;-57
2021/09/27 07:42:21;;;;;;;26.17;17.00;;;;;;;17.10;77.93;94981.88;1711058;82;21160;-61
2021/09/27 07:44:48;;;;;;;28.45;16.20;;;;;;;17.20;77.47;94977.73;1707636;82;21227;-60
2021/09/27 07:47:15;;;;;;;24.05;16.10;;;;;;;17.29;77.15;94977.59;1713320;82;21033;-58
2021/09/27 07:49:42;;;;;;;27.52;15.90;;;;;;;17.38;76.83;94979.52;1707484;81;21457;-59
2021/09/27 07:52:09;;;;;;;27.70;15.30;;;;;;;17.52;77.04;94979.48;1708860;81;21040;-62
2021/09/27 07:54:39;;;;;;;25.00;15.78;;;;;;;17.70;76.62;94978.42;1718671;80;21037;-62
2021/09/27 07:57:05;;;;;;;21.82;15.90;;;;;;;17.86;76.47;94985.58;1679792;82;21156;-59
2021/09/27 07:59:31;;;;;;;23.83;16.52;;;;;;;17.98;76.21;94981.68;1705189;81;21062;-62
2021/09/27 08:01:59;;;;;;;16.73;13.72;;;;;;;18.13;75.96;94983.11;1661199;83;21016;-62
2021/09/27 08:04:25;;;;;;;16.35;12.75;;;;;;;18.30;75.29;94986.87;1690348;81;21053;-63
2021/09/27 08:06:53;;;;;;;29.90;14.38;;;;;;;18.40;74.30;94989.64;1728755;81;20974;-56
2021/09/27 08:09:20;;;;;;;22.13;13.05;;;;;;;18.47;73.39;94982.87;1694792;81;21128;-62
2021/09/27 08:11:47;;;;;;;25.37;13.32;;;;;;;18.56;72.58;94982.08;1700371;81;21048;-57
2021/09/27 08:14:15;;;;;;;27.55;14.80;;;;;;;18.60;72.06;94985.39;1731602;81;21068;-59
2021/09/27 08:16:41;;;;;;;21.60;13.78;;;;;;;18.65;71.95;94986.06;1702506;82;21652;-60
2021/09/27 08:19:08;;;;;;;21.57;16.82;;;;;;;18.71;71.91;94991.08;1720730;81;21179;-62
2021/09/27 08:21:37;;;;;;;21.97;15.08;;;;;;;18.82;71.92;94986.98;1703623;82;21060;-61
2021/09/27 08:24:05;;;;;;;20.57;16.20;;;;;;;18.90;70.90;94986.67;1708477;81;21002;-61
2021/09/27 08:26:33;;;;;;;24.10;14.25;;;;;;;18.94;70.49;94986.44;1692752;81;21021;-58
2021/09/27 08:29:00;;;;;;;18.70;14.30;;;;;;;18.99;70.24;94985.09;1715072;81;21152;-59
2021/09/27 08:31:28;;;;;;;19.62;13.48;;;;;;;19.07;69.95;94982.61;1721540;81;21184;-59
2021/09/27 08:33:55;;;;;;;17.52;13.70;;;;;;;19.12;69.50;94984.66;1709330;81;21122;-55
2021/09/27 08:36:23;;;;;;;22.17;14.13;;;;;;;19.19;69.64;94987.80;1705974;81;21222;-59
2021/09/27 08:38:50;;;;;;;19.87;14.18;;;;;;;19.33;69.53;94986.88;1706966;81;22058;-59
2021/09/27 08:41:53;;;;;;;19.50;13.05;;;;;;;19.42;68.41;94981.12;1709673;81;21080;-58
2021/09/27 08:44:36;;;;;;;17.65;13.10;;;;;;;19.56;67.64;94981.56;1703859;82;21148;-54
2021/09/27 08:47:31;;;;;;;16.00;12.63;;;;;;;19.70;66.53;94982.67;1697467;82;21335;-61
2021/09/27 08:50:04;;;;;;;17.02;13.03;;;;;;;19.84;66.46;94985.27;1671400;82;21061;-58
2021/09/27 08:52:33;;;;;;;18.40;14.00;;;;;;;20.02;65.93;94983.46;1690850;82;20994;-62
2021/09/27 08:55:01;;;;;;;16.20;13.35;;;;;;;20.11;64.92;94970.66;1697900;82;20999;-62
2021/09/27 08:57:35;;;;;;;16.82;13.38;;;;;;;20.20;65.05;94971.84;1690966;83;22300;-59
2021/09/27 09:00:15;;;;;;;;;;;;;;;20.35;64.32;94966.15;1705291;81;21357;-60
2021/09/27 09:03:21;;;;;;;15.45;12.30;;;;;;;20.36;64.12;94973.91;1692977;82;20204;-58
2021/09/27 09:06:19;;;;;;;17.77;14.33;;;;;;;20.26;63.71;94967.80;1677013;80;21076;-58
2021/09/27 09:08:56;;;;;;;22.87;15.45;;;;;;;20.17;63.59;94961.67;1698982;82;21096;-58
2021/09/27 09:11:52;;;;;;;14.45;12.73;;;;;;;20.26;63.26;94961.42;1712889;81;21657;-59
2021/09/27 09:14:45;;;;;;;17.45;13.68;;;;;;;20.30;62.68;94958.52;1720813;81;21812;-59
2021/09/27 09:17:44;;;;;;;16.17;11.97;;;;;;;20.16;62.56;94955.31;1705775;81;21082;-59
2021/09/27 09:20:20;;;;;;;17.62;13.45;;;;;;;20.01;62.53;94956.77;1716136;82;21256;-59
2021/09/27 09:22:48;;;;;;;14.80;12.82;;;;;;;19.85;62.17;94958.86;1707837;82;21094;-61
2021/09/27 09:25:26;;;;;;;14.95;11.63;;;;;;;19.95;63.14;94947.59;1706336;82;21745;-57
2021/09/27 09:27:55;;;;;;;13.55;11.70;;;;;;;20.14;62.14;94947.29;1691728;82;22594;-59
2021/09/27 09:30:32;;;;;;;12.68;10.10;;;;;;;20.41;61.16;94941.02;1701426;81;21362;-61
2021/09/27 09:32:59;;;;;;;23.77;17.87;;;;;;;20.70;59.55;94934.95;1699750;81;22052;-58
2021/09/27 09:35:28;;;;;;;25.57;13.83;;;;;;;21.01;56.85;94936.88;1688105;82;21113;-57
2021/09/27 09:38:08;;;;;;;14.68;11.63;;;;;;;21.34;55.32;94938.85;1711229;81;21217;-56
2021/09/27 09:40:43;;;;;;;13.05;8.73;;;;;;;21.63;54.33;94930.65;1691978;82;21624;-58
2021/09/27 09:43:12;;;;;;;11.12;9.15;;;;;;;22.06;50.81;94926.91;1694913;82;21065;-66
2021/09/27 09:45:45;;;;;;;14.75;10.48;;;;;;;22.67;48.69;94927.31;1716377;81;21061;-61
2021/09/27 09:48:22;;;;;;;11.12;9.98;;;;;;;23.24;49.23;94929.91;1707316;82;21053;-56
2021/09/27 09:50:53;;;;;;;13.60;9.88;;;;;;;23.82;47.62;94929.72;1702679;82;21842;-55
2021/09/27 09:53:33;;;;;;;10.13;9.15;;;;;;;24.39;47.69;94923.61;1700398;82;21272;-60
2021/09/27 09:56:11;;;;;;;14.47;8.08;;;;;;;24.91;45.33;94921.80;1697709;82;21054;-58
2021/09/27 09:58:52;;;;;;;8.03;7.22;;;;;;;25.35;40.74;94923.14;1697292;82;22135;-58
2021/09/27 10:01:34;;;;;;;13.68;8.18;;;;;;;25.68;41.60;94915.48;1723337;81;20994;-59
2021/09/27 10:04:09;;;;;;;10.43;8.30;;;;;;;26.08;39.52;94916.38;1707314;81;21560;-62
2021/09/27 10:06:46;;;;;;;12.28;8.00;;;;;;;26.26;39.92;94914.80;1718935;81;21793;-58
2021/09/27 10:09:29;;;;;;;12.07;7.78;;;;;;;26.60;39.14;94917.67;1708803;81;21089;-59
2021/09/27 10:12:07;;;;;;;15.58;9.60;;;;;;;26.87;38.29;94912.78;1697398;82;21073;-58
2021/09/27 10:14:44;;;;;;;10.72;9.53;;;;;;;27.06;37.60;94913.34;1717677;81;21605;-59
2021/09/27 10:17:34;;;;;;;10.70;7.67;;;;;;;27.18;36.76;94913.88;1692678;82;21724;-59
2021/09/27 10:20:14;;;;;;;10.03;7.97;;;;;;;27.07;37.26;94909.21;1715010;82;21103;-60
2021/09/27 10:22:54;;;;;;;9.45;8.00;;;;;;;27.04;37.88;94910.98;1715344;82;21021;-58
2021/09/27 10:25:42;;;;;;;12.07;8.43;;;;;;;27.17;37.69;94903.22;1718030;81;21157;-59
2021/09/27 10:28:11;;;;;;;12.10;10.45;;;;;;;27.34;37.31;94895.08;1712926;80;21121;-61
2021/09/27 10:30:44;;;;;;;18.62;9.85;;;;;;;27.38;36.96;94901.13;1705801;81;21588;-59
2021/09/27 10:33:26;;;;;;;15.28;8.28;;;;;;;27.39;36.82;94895.58;1682110;83;22434;-57
2021/09/27 10:36:20;;;;;;;8.93;8.05;;;;;;;27.17;36.77;94896.16;1703789;82;20901;-59
2021/09/27 10:38:54;;;;;;;11.25;8.60;;;;;;;26.99;38.09;94895.69;1670990;84;21090;-62
2021/09/27 10:41:28;;;;;;;9.28;8.28;;;;;;;27.04;38.30;94884.89;1636910;84;21033;-60
2021/09/27 10:43:58;;;;;;;12.28;7.85;;;;;;;27.10;38.08;94884.15;1688117;81;20989;-59
2021/09/27 10:46:41;;;;;;;9.70;8.70;;;;;;;27.16;37.97;94889.00;1705923;82;21070;-58
2021/09/27 10:49:25;;;;;;;10.05;8.68;;;;;;;26.93;38.06;94890.06;1700203;81;21131;-59
2021/09/27 10:51:58;;;;;;;15.20;8.85;;;;;;;26.65;38.96;94885.75;1656944;81;21043;-60
2021/09/27 10:54:47;;;;;;;9.07;8.13;;;;;;;26.36;39.45;94873.55;1726475;82;21167;-57
2021/09/27 10:57:18;;;;;;;9.60;8.60;;;;;;;25.86;39.94;94879.40;1709071;81;21034;-60
2021/09/27 10:59:59;;;;;;;16.60;10.15;;;;;;;25.27;40.63;94881.42;1621035;86;21069;-64
2021/09/27 11:02:38;;;;;;;18.48;9.88;;;;;;;24.79;41.30;94871.85;1609149;86;21754;-60
2021/09/27 11:05:42;;;;;;;13.45;9.83;;;;;;;24.40;42.59;94867.45;1625344;87;21542;-59
2021/09/27 11:08:12;;;;;;;14.18;9.88;;;;;;;24.07;43.12;94870.74;1615396;86;21107;-60
2021/09/27 11:10:50;;;;;;;13.60;8.98;;;;;;;23.82;43.75;94868.50;1588826;88;21114;-60
2021/09/27 11:13:39;;;;;;;17.15;9.63;;;;;;;23.81;44.84;94872.59;1621529;86;21065;-60
2021/09/27 11:16:35;;;;;;;10.28;8.98;;;;;;;24.35;44.46;94869.72;1616635;87;21045;-60
2021/09/27 11:19:37;;;;;;;11.48;9.33;;;;;;;24.78;42.95;94859.82;1631987;85;22386;-60
2021/09/27 11:22:35;;;;;;;11.67;10.47;;;;;;;24.87;42.22;94864.28;1602486;87;21182;-59
2021/09/27 11:25:25;;;;;;;19.98;11.50;;;;;;;24.61;43.05;94865.63;1591604;87;21158;-60
2021/09/27 11:28:14;;;;;;;11.75;9.53;;;;;;;24.20;43.90;94860.32;1592600;88;21160;-62
2021/09/27 11:31:07;;;;;;;10.98;8.53;;;;;;;23.99;44.93;94861.41;1621197;84;21534;-58
2021/09/27 11:33:43;;;;;;;14.00;9.45;;;;;;;23.98;45.82;94856.30;1660277;86;20963;-57
2021/09/27 11:36:22;;;;;;;12.23;9.20;;;;;;;24.02;46.21;94852.65;1646302;86;22181;-60
2021/09/27 11:38:51;;;;;;;12.47;9.48;;;;;;;24.22;45.55;94849.95;1662422;86;21060;-59
2021/09/27 11:41:24;;;;;;;9.38;7.92;;;;;;;24.32;45.89;94846.85;1659433;84;21135;-59
2021/09/27 11:44:17;;;;;;;10.95;8.03;;;;;;;24.33;46.19;94846.33;1641709;84;21055;-61
2021/09/27 11:47:08;;;;;;;12.03;9.18;;;;;;;24.22;45.90;94848.55;1664774;84;21006;-59
2021/09/27 11:50:03;;;;;;;11.95;9.23;;;;;;;24.03;46.32;94847.80;1718416;81;21083;-57
2021/09/27 11:52:51;;;;;;;11.22;7.55;;;;;;;24.02;46.23;94839.26;1714140;81;20981;-58
2021/09/27 11:55:26;;;;;;;9.40;8.05;;;;;;;24.61;46.80;94834.67;1731596;81;21525;-59
2021/09/27 11:58:15;;;;;;;11.73;7.85;;;;;;;25.42;45.33;94835.14;1705759;82;21029;-60
2021/09/27 12:00:57;;;;;;;8.33;7.00;;;;;;;26.20;43.35;94833.00;1699820;81;21533;-60
2021/09/27 12:04:08;;;;;;;16.30;8.28;;;;;;;26.97;42.11;94831.93;1696594;81;21592;-61
2021/09/27 12:06:38;;;;;;;13.40;8.23;;;;;;;27.25;41.29;94834.06;1719035;81;21174;-60
2021/09/27 12:09:11;;;;;;;8.43;7.28;;;;;;;27.75;40.24;94829.98;1701128;82;21529;-61
2021/09/27 12:11:50;;;;;;;20.17;8.10;;;;;;;28.17;39.28;94822.80;1723698;81;21046;-59
2021/09/27 12:14:39;;;;;;;13.38;8.28;;;;;;;28.74;38.20;94824.13;1706344;81;20986;-58
2021/09/27 12:17:11;;;;;;;10.23;8.43;;;;;;;29.11;37.83;94819.18;1708754;81;20991;-62